Time;durP1;ratioP1;P1;durP2;ratioP2;P2;SDS_P1;SDS_P2;PMS_P1;PMS_P2;Temp;Humidity;BMP_temperature;BMP_pressure;BME280_temperature;BME280_humidity;BME280_pressure;Samples;Min_cycle;Max_cycle;Signal;HPM_P1;HPM_P2
2023/07/09 00:01:16;;;;;;;7.30;5.10;;;;;;;20.01;61.42;101196.30;106704;1256;72788;-71
2023/07/09 00:03:45;;;;;;;7.20;5.20;;;;;;;19.96;61.69;101197.83;106656;1263;60528;-71
2023/07/09 00:06:13;;;;;;;8.10;5.00;;;;;;;19.93;61.78;101199.58;106617;1258;60470;-71
2023/07/09 00:08:44;;;;;;;8.00;5.60;;;;;;;19.90;62.05;101199.31;106427;1257;72899;-72
2023/07/09 00:11:11;;;;;;;6.90;5.10;;;;;;;19.86;62.24;101202.17;106440;1261;69998;-70
2023/07/09 00:13:38;;;;;;;9.00;5.20;;;;;;;19.83;62.26;101204.66;107291;1257;72817;-70
2023/07/09 00:16:20;;;;;;;8.10;5.10;;;;;;;19.78;62.50;101203.77;106394;1257;62052;-70
2023/07/09 00:18:48;;;;;;;7.90;4.80;;;;;;;19.74;62.68;101200.94;106669;1257;60383;-70
2023/07/09 00:21:17;;;;;;;6.30;4.70;;;;;;;19.69;62.92;101206.81;106553;1260;73019;-72
2023/07/09 00:23:44;;;;;;;6.00;4.90;;;;;;;19.64;62.90;101209.52;106377;1260;70095;-71
2023/07/09 00:26:16;;;;;;;8.00;5.60;;;;;;;19.60;63.35;101210.88;106578;1257;72571;-72
2023/07/09 00:28:43;;;;;;;6.30;5.00;;;;;;;19.53;63.49;101209.44;106494;1257;63258;-73
2023/07/09 00:31:16;;;;;;;7.30;4.80;;;;;;;19.48;63.38;101210.12;107196;1257;60589;-72
2023/07/09 00:33:43;;;;;;;6.50;4.80;;;;;;;19.42;63.66;101209.63;106863;1257;73908;-74
2023/07/09 00:36:26;;;;;;;6.80;5.00;;;;;;;19.38;63.74;101208.96;106703;1257;70231;-71
2023/07/09 00:38:53;;;;;;;7.10;4.90;;;;;;;19.33;63.92;101200.52;106721;1257;70601;-72
2023/07/09 00:41:23;;;;;;;10.00;5.30;;;;;;;19.29;64.12;101204.27;106578;1263;60733;-71
2023/07/09 00:43:51;;;;;;;6.30;4.90;;;;;;;19.25;64.08;101204.61;106617;1260;60365;-72
2023/07/09 00:46:25;;;;;;;6.20;5.00;;;;;;;19.20;64.11;101202.58;106847;1257;72703;-72
2023/07/09 00:49:09;;;;;;;6.90;4.80;;;;;;;19.16;64.35;101206.80;106832;1257;70448;-70
2023/07/09 00:51:41;;;;;;;6.40;4.40;;;;;;;19.11;64.37;101210.58;107144;1257;71447;-71
2023/07/09 00:54:23;;;;;;;6.80;4.70;;;;;;;19.08;64.45;101206.48;106279;1265;60527;-71
2023/07/09 00:56:53;;;;;;;6.80;5.30;;;;;;;19.03;64.56;101200.68;106569;1257;61665;-71
2023/07/09 00:59:23;;;;;;;7.30;4.90;;;;;;;18.99;64.77;101198.29;106687;1257;73822;-71
2023/07/09 01:01:52;;;;;;;7.00;4.40;;;;;;;18.95;64.97;101193.92;106846;1257;72904;-71
2023/07/09 01:04:21;;;;;;;7.20;4.70;;;;;;;18.91;65.23;101190.73;106858;1261;71557;-71
2023/07/09 01:06:51;;;;;;;7.70;4.50;;;;;;;18.87;65.22;101185.76;106513;1257;60562;-71
2023/07/09 01:09:19;;;;;;;6.10;4.90;;;;;;;18.83;65.47;101185.61;107054;1257;60457;-72
2023/07/09 01:11:45;;;;;;;5.80;4.60;;;;;;;18.79;65.65;101185.84;107225;1257;73903;-71
2023/07/09 01:14:16;;;;;;;7.10;4.60;;;;;;;18.75;65.70;101187.05;106800;1257;68832;-72
2023/07/09 01:16:48;;;;;;;6.00;4.60;;;;;;;18.70;65.97;101183.42;106534;1257;71450;-72
2023/07/09 01:19:16;;;;;;;6.80;4.50;;;;;;;18.65;66.23;101181.07;106829;1256;63233;-71
2023/07/09 01:21:43;;;;;;;6.80;5.10;;;;;;;18.62;66.43;101187.23;106592;1258;60396;-73
2023/07/09 01:24:15;;;;;;;8.90;4.60;;;;;;;18.59;66.33;101183.59;106738;1257;71517;-71
2023/07/09 01:26:43;;;;;;;8.30;4.70;;;;;;;18.57;66.54;101187.48;106796;1258;71003;-72
2023/07/09 01:29:12;;;;;;;6.30;4.50;;;;;;;18.54;66.62;101184.15;107174;1256;73224;-71
2023/07/09 01:31:39;;;;;;;7.30;4.90;;;;;;;18.50;66.84;101187.16;106730;1257;60759;-71
2023/07/09 01:34:05;;;;;;;7.90;5.30;;;;;;;18.47;66.69;101193.50;106703;1258;60499;-72
2023/07/09 01:36:32;;;;;;;8.00;4.80;;;;;;;18.43;66.89;101197.27;106827;1258;72649;-71
2023/07/09 01:39:00;;;;;;;7.20;4.80;;;;;;;18.40;67.13;101194.73;106195;1257;934538;-71
2023/07/09 01:41:30;;;;;;;8.70;4.70;;;;;;;18.38;67.23;101193.25;106411;1256;71459;-71
2023/07/09 01:43:57;;;;;;;5.90;4.80;;;;;;;18.35;67.67;101191.73;106642;1257;60793;-71
2023/07/09 01:46:24;;;;;;;6.80;4.80;;;;;;;18.31;67.50;101186.92;106763;1256;60377;-72
2023/07/09 01:48:52;;;;;;;9.10;5.00;;;;;;;18.28;67.55;101189.30;107306;1257;72348;-70
2023/07/09 01:51:19;;;;;;;7.30;5.00;;;;;;;18.26;67.66;101187.15;106866;1257;72658;-70
2023/07/09 01:53:46;;;;;;;6.30;4.90;;;;;;;18.23;67.75;101182.29;106399;1256;72713;-71
2023/07/09 01:56:13;;;;;;;6.90;4.90;;;;;;;18.21;67.86;101181.40;106612;1256;60805;-71
2023/07/09 01:58:41;;;;;;;6.80;5.10;;;;;;;18.18;67.93;101178.43;106398;1257;60460;-71
2023/07/09 02:01:09;;;;;;;6.70;4.40;;;;;;;18.14;68.01;101178.33;106575;1257;74017;-71
2023/07/09 02:03:36;;;;;;;8.70;4.70;;;;;;;18.11;68.22;101176.97;106743;1258;69926;-71
2023/07/09 02:06:09;;;;;;;5.80;4.50;;;;;;;18.08;68.38;101174.59;106962;1256;71450;-71
2023/07/09 02:08:37;;;;;;;8.80;4.70;;;;;;;18.05;68.39;101173.98;106431;1256;60729;-72
2023/07/09 02:11:04;;;;;;;6.80;4.50;;;;;;;18.03;68.46;101175.15;106739;1257;60356;-70
2023/07/09 02:13:30;;;;;;;8.00;4.90;;;;;;;18.01;68.35;101175.95;106538;1256;72689;-71
2023/07/09 02:15:57;;;;;;;6.80;5.00;;;;;;;17.99;68.53;101175.83;106859;1257;69952;-72
2023/07/09 02:18:28;;;;;;;5.90;4.50;;;;;;;17.98;68.56;101177.09;106581;1257;73061;-71
2023/07/09 02:20:55;;;;;;;6.40;4.50;;;;;;;17.97;68.71;101180.46;108143;1256;63491;-71
2023/07/09 02:23:29;;;;;;;6.10;4.50;;;;;;;17.96;68.64;101181.49;108812;1256;58717;-71
2023/07/09 02:25:56;;;;;;;5.80;4.50;;;;;;;17.94;68.68;101182.44;108818;1256;74113;-71
2023/07/09 02:28:22;;;;;;;6.30;4.60;;;;;;;17.93;68.66;101190.63;108864;1257;71187;-71
2023/07/09 02:30:49;;;;;;;6.40;4.40;;;;;;;17.92;68.81;101194.84;108830;1256;71566;-71
2023/07/09 02:33:16;;;;;;;7.40;4.80;;;;;;;17.92;68.88;101198.02;108319;1256;60782;-71
2023/07/09 02:35:43;;;;;;;6.20;4.90;;;;;;;17.92;68.95;101200.38;108725;1256;58812;-73
2023/07/09 02:38:10;;;;;;;5.80;4.40;;;;;;;17.91;68.88;101196.71;106858;1257;73648;-71
2023/07/09 02:40:37;;;;;;;6.10;4.70;;;;;;;17.91;68.95;101196.99;108855;1257;71191;-72
2023/07/09 02:43:04;;;;;;;6.50;4.80;;;;;;;17.89;69.16;101200.92;106923;1257;71772;-71
2023/07/09 02:45:31;;;;;;;6.40;4.40;;;;;;;17.88;69.14;101200.77;106519;1256;60789;-72
2023/07/09 02:47:58;;;;;;;6.30;4.90;;;;;;;17.86;69.21;101195.73;106706;1256;60446;-70
2023/07/09 02:50:24;;;;;;;7.60;4.60;;;;;;;17.83;69.29;101197.15;106401;1257;72669;-71
2023/07/09 02:52:51;;;;;;;6.50;4.90;;;;;;;17.81;69.46;101196.39;106531;1257;71044;-71
2023/07/09 02:55:18;;;;;;;6.20;4.50;;;;;;;17.78;69.55;101197.54;106542;1257;72689;-71
2023/07/09 02:57:45;;;;;;;6.10;4.50;;;;;;;17.75;69.70;101194.15;106661;1263;61009;-72
2023/07/09 03:00:12;;;;;;;6.30;5.10;;;;;;;17.73;69.72;101190.11;106898;1256;60537;-71
2023/07/09 03:02:38;;;;;;;8.80;4.90;;;;;;;17.70;69.84;101190.62;106912;1256;72716;-71
2023/07/09 03:05:06;;;;;;;7.50;4.60;;;;;;;17.68;69.91;101189.92;106630;1256;71771;-72
2023/07/09 03:07:33;;;;;;;6.40;4.80;;;;;;;17.66;70.09;101192.60;106533;1258;71755;-72
2023/07/09 03:10:00;;;;;;;6.40;4.70;;;;;;;17.65;70.30;101188.48;106710;1256;60832;-72
2023/07/09 03:12:27;;;;;;;7.20;4.40;;;;;;;17.63;70.33;101184.70;106361;1260;59432;-72
2023/07/09 03:14:54;;;;;;;7.40;4.90;;;;;;;17.62;70.33;101186.10;107089;1256;74115;-71
2023/07/09 03:17:20;;;;;;;6.40;4.80;;;;;;;17.60;70.35;101186.02;107006;1257;69992;-72
2023/07/09 03:19:47;;;;;;;5.80;4.90;;;;;;;17.60;70.40;101186.23;106667;1262;71135;-72
2023/07/09 03:22:14;;;;;;;6.40;4.90;;;;;;;17.58;70.44;101189.60;106471;1258;60879;-72
2023/07/09 03:24:41;;;;;;;6.30;4.70;;;;;;;17.57;70.37;101188.91;106513;1258;60772;-71
2023/07/09 03:27:08;;;;;;;8.50;4.80;;;;;;;17.57;70.60;101187.39;106470;1256;73823;-70
2023/07/09 03:29:35;;;;;;;7.50;4.80;;;;;;;17.55;70.68;101189.02;106656;1259;72479;-71
2023/07/09 03:32:02;;;;;;;6.30;4.80;;;;;;;17.54;70.73;101193.80;106802;1256;71764;-71
2023/07/09 03:34:29;;;;;;;5.60;4.50;;;;;;;17.52;70.70;101189.33;106435;1257;60730;-71
2023/07/09 03:36:55;;;;;;;6.40;4.90;;;;;;;17.51;70.75;101186.73;107486;1256;60445;-71
2023/07/09 03:39:22;;;;;;;6.60;4.30;;;;;;;17.51;70.74;101194.09;107303;1256;71755;-71
2023/07/09 03:41:49;;;;;;;6.60;4.70;;;;;;;17.51;70.85;101202.29;106616;1257;70003;-71
2023/07/09 03:44:16;;;;;;;6.60;4.60;;;;;;;17.51;70.88;101200.85;107400;1260;72591;-72
2023/07/09 03:46:43;;;;;;;8.00;4.60;;;;;;;17.52;71.08;101201.50;107113;1256;60766;-72
2023/07/09 03:49:10;;;;;;;6.90;4.50;;;;;;;17.53;71.04;101207.77;106971;1256;60565;-71
2023/07/09 03:51:37;;;;;;;6.60;4.70;;;;;;;17.55;71.12;101205.83;106856;1257;72704;-70
2023/07/09 03:54:05;;;;;;;7.30;4.60;;;;;;;17.57;71.10;101207.94;107075;1257;70357;-71
2023/07/09 03:56:32;;;;;;;8.30;4.60;;;;;;;17.58;71.04;101210.53;106753;1256;72232;-70
2023/07/09 03:58:58;;;;;;;8.10;5.00;;;;;;;17.61;71.03;101211.65;106727;1257;60872;-70
2023/07/09 04:01:25;;;;;;;5.80;4.60;;;;;;;17.64;71.04;101210.16;106672;1256;59556;-71
2023/07/09 04:03:52;;;;;;;6.70;4.50;;;;;;;17.67;71.05;101209.15;106781;1260;74029;-71
2023/07/09 04:06:19;;;;;;;6.30;4.70;;;;;;;17.71;70.83;101205.77;106933;1256;69948;-72
2023/07/09 04:08:49;;;;;;;6.40;4.70;;;;;;;17.74;70.80;101205.84;106885;1256;71728;-72
2023/07/09 04:11:16;;;;;;;7.80;4.60;;;;;;;17.77;70.67;101205.29;106800;1257;62409;-72
2023/07/09 04:13:43;;;;;;;5.70;4.30;;;;;;;17.80;70.63;101206.45;106756;1256;60457;-72
2023/07/09 04:16:11;;;;;;;7.20;4.50;;;;;;;17.85;70.57;101206.30;106688;1257;73896;-72
2023/07/09 04:18:37;;;;;;;5.60;4.60;;;;;;;17.91;70.50;101209.46;106697;1257;70977;-71
2023/07/09 04:21:04;;;;;;;5.50;4.40;;;;;;;17.96;70.39;101205.78;106761;1259;70541;-71
2023/07/09 04:24:03;;;;;;;6.60;4.50;;;;;;;18.02;70.29;101205.63;106693;1257;60895;-71
2023/07/09 04:26:30;;;;;;;6.40;4.50;;;;;;;18.10;70.13;101209.61;106178;1257;60427;-71
2023/07/09 04:28:57;;;;;;;7.00;4.30;;;;;;;18.15;70.09;101214.80;106290;1256;72672;-71
2023/07/09 04:31:24;;;;;;;8.20;4.60;;;;;;;18.21;69.94;101213.54;106350;1257;70079;-71
2023/07/09 04:33:52;;;;;;;6.60;4.90;;;;;;;18.28;69.88;101209.91;106153;1257;72428;-71
2023/07/09 04:36:19;;;;;;;8.10;4.40;;;;;;;18.36;69.68;101213.30;106077;1257;62088;-72
2023/07/09 04:38:48;;;;;;;6.50;4.50;;;;;;;18.43;69.66;101215.21;106226;1256;60331;-73
2023/07/09 04:41:15;;;;;;;5.90;4.40;;;;;;;18.50;69.75;101215.10;107284;1256;72738;-70
2023/07/09 04:43:41;;;;;;;5.80;4.90;;;;;;;18.58;69.67;101212.73;108763;1257;70313;-70
2023/07/09 04:46:08;;;;;;;11.50;7.10;;;;;;;18.67;69.66;101211.16;108562;1256;71911;-69
2023/07/09 04:48:35;;;;;;;6.10;4.50;;;;;;;18.77;69.57;101210.16;107270;1257;60758;-69
2023/07/09 04:51:02;;;;;;;8.40;4.90;;;;;;;18.87;69.70;101209.53;107235;1256;60860;-70
2023/07/09 04:53:29;;;;;;;6.70;5.10;;;;;;;18.98;69.74;101209.25;106245;1260;73967;-69
2023/07/09 04:55:56;;;;;;;6.20;4.70;;;;;;;19.08;69.93;101212.41;106414;1256;71222;-69
2023/07/09 04:58:22;;;;;;;6.10;4.70;;;;;;;19.16;69.87;101215.14;106115;1256;71199;-69
2023/07/09 05:00:50;;;;;;;6.90;4.30;;;;;;;19.26;69.67;101214.32;106326;1260;60505;-68
2023/07/09 05:03:19;;;;;;;7.40;4.30;;;;;;;19.36;69.34;101214.62;106209;1256;60351;-69
2023/07/09 05:05:47;;;;;;;6.10;4.40;;;;;;;19.46;68.88;101215.88;106812;1256;73936;-70
2023/07/09 05:08:14;;;;;;;7.10;4.50;;;;;;;19.55;68.67;101216.50;107455;1259;70047;-68
2023/07/09 05:10:46;;;;;;;6.30;4.40;;;;;;;19.65;68.52;101216.20;106280;1256;72807;-69
2023/07/09 05:13:13;;;;;;;5.50;3.80;;;;;;;19.76;68.35;101216.33;106046;1256;62090;-69
2023/07/09 05:15:41;;;;;;;5.80;4.50;;;;;;;19.85;68.22;101219.30;106265;1256;60546;-69
2023/07/09 05:18:08;;;;;;;7.00;4.00;;;;;;;19.93;68.08;101216.39;106316;1256;73590;-69
2023/07/09 05:20:35;;;;;;;6.60;4.30;;;;;;;20.04;67.64;101216.20;106534;1256;68908;-70
2023/07/09 05:23:03;;;;;;;8.90;4.30;;;;;;;20.14;67.01;101218.92;106182;1257;72645;-69
2023/07/09 05:25:29;;;;;;;6.70;4.20;;;;;;;20.22;66.25;101217.05;106746;1260;60816;-69
2023/07/09 05:27:56;;;;;;;6.60;4.50;;;;;;;20.30;65.82;101217.69;106312;1257;59944;-69
2023/07/09 05:30:23;;;;;;;5.00;4.10;;;;;;;20.41;65.53;101221.01;106232;1257;60504;-71
2023/07/09 05:32:49;;;;;;;5.90;4.30;;;;;;;20.51;65.21;101212.77;106201;1260;70518;-70
2023/07/09 05:35:16;;;;;;;7.20;4.20;;;;;;;20.61;64.57;101215.86;106319;1257;71147;-69
2023/07/09 05:37:43;;;;;;;5.10;4.30;;;;;;;20.71;64.18;101213.23;106094;1259;62429;-69
2023/07/09 05:40:10;;;;;;;5.80;4.20;;;;;;;20.81;63.86;101216.83;106163;1259;60386;-68
2023/07/09 05:42:40;;;;;;;5.60;4.30;;;;;;;20.89;63.61;101216.16;106596;1256;73683;-70
2023/07/09 05:45:07;;;;;;;6.40;4.00;;;;;;;20.98;63.40;101218.14;106494;1256;70090;-69
2023/07/09 05:47:34;;;;;;;5.90;4.00;;;;;;;21.08;62.91;101216.86;106162;1260;72844;-71
2023/07/09 05:50:00;;;;;;;4.70;4.20;;;;;;;21.16;62.48;101219.37;106364;1257;61663;-66
2023/07/09 05:52:29;;;;;;;6.80;4.10;;;;;;;21.24;62.21;101218.31;106167;1257;60374;-69
2023/07/09 05:54:56;;;;;;;7.80;4.30;;;;;;;21.34;62.22;101219.15;106189;1256;73972;-69
2023/07/09 05:57:25;;;;;;;7.30;4.40;;;;;;;21.42;61.90;101220.34;106039;1256;68809;-69
2023/07/09 05:59:52;;;;;;;6.40;4.20;;;;;;;21.51;61.84;101220.50;106874;1257;71895;-69
2023/07/09 06:02:20;;;;;;;10.40;4.30;;;;;;;21.59;61.26;101223.91;106406;1256;61253;-71
2023/07/09 06:04:51;;;;;;;6.90;4.40;;;;;;;21.67;61.13;101227.38;106200;1256;60921;-70
2023/07/09 06:07:20;;;;;;;7.90;4.20;;;;;;;21.76;60.97;101228.92;106279;1256;72803;-70
2023/07/09 06:09:47;;;;;;;6.20;4.50;;;;;;;21.86;60.74;101233.48;106730;1256;71277;-69
2023/07/09 06:12:14;;;;;;;6.40;4.70;;;;;;;21.91;60.39;101233.25;106978;1256;71433;-69
2023/07/09 06:14:41;;;;;;;7.00;4.60;;;;;;;21.99;60.70;101229.80;107317;1256;60491;-69
2023/07/09 06:17:08;;;;;;;7.10;4.90;;;;;;;22.11;60.59;101232.91;106265;1256;60374;-69
2023/07/09 06:19:35;;;;;;;9.10;4.90;;;;;;;22.21;60.39;101231.58;106848;1256;74321;-69
2023/07/09 06:22:01;;;;;;;5.70;4.30;;;;;;;22.34;60.18;101233.95;106333;1257;69724;-68
2023/07/09 06:24:28;;;;;;;7.50;4.80;;;;;;;22.47;60.14;101232.31;106698;1256;72835;-69
2023/07/09 06:26:55;;;;;;;6.60;4.70;;;;;;;22.61;59.79;101237.02;106259;1256;60587;-67
2023/07/09 06:29:23;;;;;;;7.00;4.60;;;;;;;22.74;59.45;101232.60;106322;1256;59119;-69
2023/07/09 06:31:50;;;;;;;11.30;5.00;;;;;;;22.88;59.68;101233.64;106609;1256;73662;-69
2023/07/09 06:34:17;;;;;;;7.80;4.50;;;;;;;23.02;59.31;101230.29;106241;1256;71173;-69
2023/07/09 06:36:43;;;;;;;6.60;4.80;;;;;;;23.17;59.09;101231.84;106672;1257;72036;-69
2023/07/09 06:39:10;;;;;;;9.70;4.90;;;;;;;23.32;59.01;101231.05;106188;1256;60454;-69
2023/07/09 06:41:38;;;;;;;8.40;5.20;;;;;;;23.46;58.38;101233.75;106488;1257;60368;-70
2023/07/09 06:44:09;;;;;;;10.70;5.60;;;;;;;23.59;58.13;101236.23;106368;1256;74535;-69
2023/07/09 06:46:36;;;;;;;8.50;5.20;;;;;;;23.74;57.76;101237.38;106398;1256;72872;-69
2023/07/09 06:49:05;;;;;;;11.60;5.60;;;;;;;23.85;57.03;101235.21;106405;1256;71490;-71
2023/07/09 06:51:32;;;;;;;10.10;5.30;;;;;;;23.95;56.42;101234.52;106363;1257;61881;-69
2023/07/09 06:53:59;;;;;;;9.40;5.60;;;;;;;24.06;56.19;101238.67;106775;1259;59745;-69
2023/07/09 06:56:25;;;;;;;9.90;5.30;;;;;;;24.17;55.54;101233.66;106316;1256;72358;-70
2023/07/09 06:58:52;;;;;;;9.40;5.40;;;;;;;24.26;54.91;101233.17;106139;1256;70075;-71
2023/07/09 07:01:19;;;;;;;7.60;5.30;;;;;;;24.34;54.91;101233.98;106238;1260;72779;-70
2023/07/09 07:03:47;;;;;;;10.60;5.20;;;;;;;24.44;54.66;101232.55;106317;1256;60809;-70
2023/07/09 07:06:16;;;;;;;8.90;4.80;;;;;;;24.56;54.30;101231.52;105988;1258;60508;-71
2023/07/09 07:08:42;;;;;;;7.70;4.60;;;;;;;24.70;54.26;101237.52;106173;1257;72713;-71
2023/07/09 07:11:09;;;;;;;6.80;4.50;;;;;;;24.79;53.42;101237.29;106723;1260;69755;-71
2023/07/09 07:13:38;;;;;;;8.30;4.80;;;;;;;24.88;53.42;101232.27;106144;1257;71463;-70
2023/07/09 07:16:08;;;;;;;6.60;4.50;;;;;;;25.00;53.44;101232.27;106647;1262;60918;-69
2023/07/09 07:18:35;;;;;;;8.70;4.80;;;;;;;25.12;53.20;101236.93;106343;1260;60458;-70
2023/07/09 07:21:02;;;;;;;8.50;4.80;;;;;;;25.24;52.84;101236.44;106568;1257;73965;-77
2023/07/09 07:23:29;;;;;;;7.50;4.10;;;;;;;25.32;52.41;101241.36;106259;1256;70200;-73
2023/07/09 07:25:56;;;;;;;9.50;4.80;;;;;;;25.39;52.45;101231.89;106485;1259;72827;-72
2023/07/09 07:28:23;;;;;;;8.70;4.70;;;;;;;25.46;51.79;101226.56;108418;1256;59268;-73
2023/07/09 07:31:01;;;;;;;12.40;5.20;;;;;;;25.54;51.65;101225.14;107758;1256;60461;-72
2023/07/09 07:33:28;;;;;;;9.30;4.80;;;;;;;25.61;50.81;101228.98;108131;1256;71417;-72
2023/07/09 07:35:55;;;;;;;7.50;4.90;;;;;;;25.68;51.01;101228.98;106607;1256;71669;-72
2023/07/09 07:38:41;;;;;;;8.50;4.90;;;;;;;25.80;50.53;101230.78;106561;1256;75509;-72
2023/07/09 07:41:08;;;;;;;8.20;5.10;;;;;;;25.88;50.34;101231.70;106277;1258;60986;-73
2023/07/09 07:43:35;;;;;;;6.80;4.60;;;;;;;25.96;50.55;101234.48;106646;1256;60380;-73
2023/07/09 07:46:02;;;;;;;11.20;5.30;;;;;;;26.06;50.32;101231.36;108026;1259;72977;-73
2023/07/09 07:48:29;;;;;;;7.20;4.70;;;;;;;26.18;50.02;101230.59;106923;1256;70088;-72
2023/07/09 07:51:01;;;;;;;7.30;4.70;;;;;;;26.30;49.76;101237.98;107243;1257;72779;-73
2023/07/09 07:53:30;;;;;;;8.10;4.70;;;;;;;26.38;49.33;101236.48;106581;1257;60503;-74
2023/07/09 07:55:58;;;;;;;7.80;4.60;;;;;;;26.48;49.19;101240.91;106229;1256;60524;-74
2023/07/09 07:58:25;;;;;;;8.10;4.50;;;;;;;26.61;49.07;101238.02;106057;1258;73908;-73
2023/07/09 08:00:56;;;;;;;8.20;5.20;;;;;;;26.74;49.44;101235.65;106055;1256;69923;-74
2023/07/09 08:03:24;;;;;;;6.20;4.20;;;;;;;26.88;48.80;101234.36;106559;1259;73652;-74
2023/07/09 08:05:51;;;;;;;9.10;4.40;;;;;;;26.98;48.23;101231.38;107535;1256;60491;-72
2023/07/09 08:08:18;;;;;;;6.50;4.50;;;;;;;27.09;47.80;101230.45;106105;1256;60542;-72
2023/07/09 08:10:45;;;;;;;6.00;4.40;;;;;;;27.18;47.37;101232.75;106082;1257;72352;-72
2023/07/09 08:13:13;;;;;;;6.00;4.20;;;;;;;27.29;47.74;101232.05;106113;1256;70173;-74
2023/07/09 08:15:40;;;;;;;7.10;4.20;;;;;;;27.41;47.15;101230.72;106009;1256;72787;-75
2023/07/09 08:18:07;;;;;;;6.80;4.00;;;;;;;27.50;47.14;101230.10;106258;1256;60432;-74
2023/07/09 08:20:35;;;;;;;5.70;4.10;;;;;;;27.62;46.60;101227.13;106529;1257;60468;-74
2023/07/09 08:23:02;;;;;;;7.90;5.80;;;;;;;27.73;46.27;101222.41;107224;1258;72702;-75
2023/07/09 08:25:28;;;;;;;7.20;4.30;;;;;;;27.85;46.15;101222.28;107037;1256;71714;-73
2023/07/09 08:27:55;;;;;;;7.50;4.40;;;;;;;27.96;46.07;101221.98;106279;1256;71672;-73
2023/07/09 08:30:22;;;;;;;5.80;3.90;;;;;;;28.08;45.62;101222.76;106054;1256;60505;-74
2023/07/09 08:32:48;;;;;;;6.90;4.30;;;;;;;28.22;45.23;101220.60;105988;1257;60796;-74
2023/07/09 08:35:15;;;;;;;6.30;4.10;;;;;;;28.33;43.96;101223.27;106359;1257;73775;-72
2023/07/09 08:38:01;;;;;;;7.50;4.10;;;;;;;28.44;43.99;101217.09;106776;1259;69834;-72
2023/07/09 08:40:28;;;;;;;5.20;3.70;;;;;;;28.59;44.07;101216.09;106083;1257;73916;-71
2023/07/09 08:43:05;;;;;;;5.20;4.30;;;;;;;28.71;42.21;101215.91;106867;1256;60372;-73
2023/07/09 08:45:45;;;;;;;4.70;3.60;;;;;;;28.80;42.42;101213.72;106633;1257;60375;-70
2023/07/09 08:48:30;;;;;;;5.30;4.20;;;;;;;28.93;42.71;101212.78;106088;1257;73758;-70
2023/07/09 08:51:13;;;;;;;7.50;4.40;;;;;;;29.05;42.56;101206.95;106471;1256;71179;-71
2023/07/09 08:53:48;;;;;;;6.00;4.00;;;;;;;29.19;42.26;101202.75;106583;1256;72747;-71
2023/07/09 08:56:16;;;;;;;7.40;4.00;;;;;;;29.32;41.49;101208.63;106260;1256;60540;-73
2023/07/09 08:58:44;;;;;;;6.70;4.30;;;;;;;29.46;40.42;101206.52;106132;1256;60501;-73
2023/07/09 09:01:18;;;;;;;8.50;4.40;;;;;;;29.58;39.63;101207.86;106295;1256;73205;-72
2023/07/09 09:03:58;;;;;;;7.40;4.40;;;;;;;29.71;40.42;101207.24;106566;1256;71181;-73
2023/07/09 09:06:30;;;;;;;6.90;4.10;;;;;;;29.89;40.19;101207.64;106292;1257;71522;-73
2023/07/09 09:09:40;;;;;;;6.60;4.00;;;;;;;30.03;39.67;101205.10;106435;1256;60388;-73
2023/07/09 09:12:21;;;;;;;8.00;4.20;;;;;;;30.20;38.76;101203.73;106591;1256;60366;-72
2023/07/09 09:14:59;;;;;;;6.90;4.40;;;;;;;30.36;38.63;101204.02;106050;1260;73008;-71
2023/07/09 09:17:29;;;;;;;5.90;4.20;;;;;;;30.42;38.14;101205.36;106278;1257;70372;-72
2023/07/09 09:20:06;;;;;;;7.10;4.10;;;;;;;30.52;38.50;101203.02;106528;1259;72454;-71
2023/07/09 09:22:47;;;;;;;6.00;3.90;;;;;;;30.66;37.54;101201.42;106706;1256;61666;-72
2023/07/09 09:25:32;;;;;;;6.20;4.10;;;;;;;30.81;37.79;101200.77;106574;1256;60393;-71
2023/07/09 09:28:00;;;;;;;5.90;4.00;;;;;;;30.95;36.36;101203.19;106674;1256;72252;-70
2023/07/09 09:30:27;;;;;;;7.30;3.90;;;;;;;31.04;34.97;101198.26;106275;1260;70155;-71
2023/07/09 09:33:05;;;;;;;5.20;3.90;;;;;;;31.15;35.35;101199.38;106292;1256;72857;-73
2023/07/09 09:35:37;;;;;;;5.80;4.10;;;;;;;31.31;35.92;101198.98;106383;1256;60797;-71
2023/07/09 09:38:19;;;;;;;8.20;3.80;;;;;;;31.44;35.09;101199.02;106376;1259;59534;-72
2023/07/09 09:40:47;;;;;;;6.30;3.80;;;;;;;31.60;35.12;101199.55;106620;1256;72335;-71
2023/07/09 09:43:20;;;;;;;7.50;3.60;;;;;;;31.74;34.89;101198.77;105961;1257;70485;-73
2023/07/09 09:45:50;;;;;;;4.90;3.50;;;;;;;31.88;33.93;101198.15;106320;1256;72697;-73
2023/07/09 09:48:28;;;;;;;6.00;3.80;;;;;;;32.01;33.96;101197.75;106810;1256;61492;-73
2023/07/09 09:50:57;;;;;;;6.80;3.90;;;;;;;32.09;33.29;101200.67;106375;1256;60456;-72
2023/07/09 09:53:25;;;;;;;4.40;3.60;;;;;;;32.17;33.20;101200.63;105826;1262;73905;-73
2023/07/09 09:55:54;;;;;;;5.10;3.70;;;;;;;32.28;33.04;101202.79;106433;1256;70485;-72
2023/07/09 09:58:27;;;;;;;4.80;3.60;;;;;;;32.41;33.36;101207.42;106244;1257;71599;-72
2023/07/09 10:00:56;;;;;;;6.40;3.50;;;;;;;32.56;33.06;101206.56;106110;1256;60790;-71
2023/07/09 10:03:34;;;;;;;5.00;3.40;;;;;;;32.67;32.26;101204.10;106118;1257;60458;-71
2023/07/09 10:06:10;;;;;;;5.80;3.60;;;;;;;32.78;31.72;101205.75;106518;1260;72796;-73
2023/07/09 10:08:49;;;;;;;6.70;3.70;;;;;;;32.93;32.33;101207.41;106055;1259;71339;-71
2023/07/09 10:11:22;;;;;;;6.10;3.50;;;;;;;33.08;32.27;101209.19;106334;1259;71266;-71
2023/07/09 10:13:55;;;;;;;4.60;3.40;;;;;;;33.18;31.89;101213.05;106348;1256;60997;-71
2023/07/09 10:16:35;;;;;;;4.00;3.30;;;;;;;33.27;31.48;101210.05;106172;1256;60059;-72
2023/07/09 10:19:13;;;;;;;5.10;3.40;;;;;;;33.43;31.51;101208.83;106202;1260;74852;-72
2023/07/09 10:22:06;;;;;;;5.00;3.40;;;;;;;33.57;31.81;101200.09;106333;1256;71023;-70
2023/07/09 10:24:58;;;;;;;4.70;3.80;;;;;;;33.68;32.02;101202.52;105967;1256;71791;-71
2023/07/09 10:27:49;;;;;;;4.90;3.50;;;;;;;33.73;31.92;101198.83;106046;1262;60553;-72
2023/07/09 10:30:19;;;;;;;5.30;3.40;;;;;;;33.77;31.47;101203.01;106310;1262;61128;-70
2023/07/09 10:33:06;;;;;;;5.20;3.50;;;;;;;33.81;30.36;101204.70;106076;1260;75109;-69
2023/07/09 10:35:43;;;;;;;5.00;3.50;;;;;;;33.86;30.23;101204.88;105999;1260;70924;-70
2023/07/09 10:38:23;;;;;;;4.30;3.10;;;;;;;33.92;30.41;101197.86;106395;1257;72686;-72
2023/07/09 10:40:55;;;;;;;5.40;3.30;;;;;;;34.01;30.51;101200.79;106288;1257;60588;-68
2023/07/09 10:43:35;;;;;;;6.60;3.40;;;;;;;34.07;30.48;101197.20;106220;1256;61157;-71
2023/07/09 10:46:10;;;;;;;4.10;3.30;;;;;;;34.12;30.19;101189.52;106452;1256;74389;-69
2023/07/09 10:48:50;;;;;;;5.20;3.50;;;;;;;34.19;31.09;101192.90;106132;1257;71399;-70
2023/07/09 10:51:21;;;;;;;5.10;3.60;;;;;;;34.23;30.91;101194.52;106501;1256;72784;-72
2023/07/09 10:54:02;;;;;;;5.60;3.50;;;;;;;34.26;30.60;101191.52;106752;1256;60853;-72
2023/07/09 10:56:35;;;;;;;5.20;3.50;;;;;;;34.32;31.32;101192.64;106529;1256;60434;-71
2023/07/09 10:59:26;;;;;;;4.80;3.60;;;;;;;34.41;31.62;101191.96;106812;1256;73935;-70
2023/07/09 11:02:08;;;;;;;4.90;3.50;;;;;;;34.53;31.66;101193.35;106114;1257;71198;-73
2023/07/09 11:04:40;;;;;;;6.30;3.70;;;;;;;34.63;31.40;101194.52;106347;1257;72636;-71
2023/07/09 11:07:13;;;;;;;5.10;3.50;;;;;;;34.67;31.42;101192.33;106353;1262;60442;-73
2023/07/09 11:09:46;;;;;;;5.00;3.40;;;;;;;34.79;31.67;101191.14;106068;1262;60445;-71
2023/07/09 11:12:17;;;;;;;5.30;3.40;;;;;;;34.90;31.23;101190.33;106486;1257;72701;-69
2023/07/09 11:14:55;;;;;;;5.40;3.40;;;;;;;35.00;30.69;101186.19;106537;1260;69989;-71
2023/07/09 11:17:22;;;;;;;4.60;3.60;;;;;;;35.10;30.74;101188.73;106402;1257;72969;-68
2023/07/09 11:19:55;;;;;;;4.70;3.20;;;;;;;35.19;29.79;101184.73;106422;1261;60896;-69
2023/07/09 11:22:22;;;;;;;4.90;3.40;;;;;;;35.29;30.62;101185.86;106211;1260;60458;-70
2023/07/09 11:25:04;;;;;;;4.50;3.40;;;;;;;35.41;29.85;101178.36;106191;1257;72547;-69
2023/07/09 11:27:31;;;;;;;6.50;3.50;;;;;;;35.50;30.28;101175.13;106514;1256;70821;-70
2023/07/09 11:30:01;;;;;;;3.90;2.90;;;;;;;35.55;28.46;101168.05;106277;1257;71976;-70